Time;durP1;ratioP1;P1;durP2;ratioP2;P2;SDS_P1;SDS_P2;PMS_P1;PMS_P2;Temp;Humidity;BMP_temperature;BMP_pressure;BME280_temperature;BME280_humidity;BME280_pressure;Samples;Min_cycle;Max_cycle;Signal;HPM_P1;HPM_P2
2021/01/07 00:02:20;;;;;;;3.25;2.47;;;;;;;12.56;49.42;100145.13;4919663;28;118247;-61
2021/01/07 00:04:46;;;;;;;2.70;2.50;;;;;;;12.53;49.32;100143.00;4915699;28;128442;-61
2021/01/07 00:07:12;;;;;;;2.95;2.63;;;;;;;12.55;49.48;100140.81;4916141;28;128528;-62
2021/01/07 00:09:38;;;;;;;2.95;2.65;;;;;;;12.53;49.59;100138.41;4895265;28;127142;-62
2021/01/07 00:12:04;;;;;;;2.75;2.47;;;;;;;12.55;49.40;100130.00;4884133;28;117110;-62
2021/01/07 00:14:30;;;;;;;2.92;2.63;;;;;;;12.52;49.46;100139.50;4885079;28;119723;-61
2021/01/07 00:16:57;;;;;;;2.90;2.60;;;;;;;12.55;49.29;100126.50;4901976;28;127310;-61
2021/01/07 00:19:23;;;;;;;2.92;2.72;;;;;;;12.51;49.26;100128.97;4894297;28;128229;-61
2021/01/07 00:21:49;;;;;;;3.10;2.80;;;;;;;12.53;49.43;100130.28;4902216;28;117930;-61
2021/01/07 00:24:15;;;;;;;2.85;2.63;;;;;;;12.49;49.47;100126.53;4894166;28;128252;-61
2021/01/07 00:26:41;;;;;;;3.45;2.67;;;;;;;12.49;49.26;100120.34;4911972;28;118964;-61
2021/01/07 00:29:07;;;;;;;3.15;2.85;;;;;;;12.51;49.31;100123.56;4921762;28;127534;-62
2021/01/07 00:31:33;;;;;;;3.22;2.92;;;;;;;12.48;49.49;100124.94;4922918;28;97726;-62
2021/01/07 00:33:59;;;;;;;3.28;2.92;;;;;;;12.48;49.35;100116.03;4920941;28;127112;-62
2021/01/07 00:36:25;;;;;;;3.45;2.97;;;;;;;12.48;49.37;100113.34;4886905;28;114938;-62
2021/01/07 00:38:51;;;;;;;3.50;2.85;;;;;;;12.45;49.27;100117.41;4893428;28;127732;-61
2021/01/07 00:41:18;;;;;;;3.25;2.95;;;;;;;12.44;49.37;100110.41;4867918;28;117222;-62
2021/01/07 00:43:45;;;;;;;3.55;3.17;;;;;;;12.44;49.45;100110.41;4892543;28;118078;-61
2021/01/07 00:46:12;;;;;;;3.17;2.80;;;;;;;12.45;49.29;100109.28;4901747;28;117005;-61
2021/01/07 00:48:38;;;;;;;3.97;3.00;;;;;;;12.43;49.36;100110.69;4894516;28;97974;-61
2021/01/07 00:51:04;;;;;;;3.40;3.10;;;;;;;12.42;49.35;100106.38;4902366;28;117681;-62
2021/01/07 00:53:30;;;;;;;3.40;2.97;;;;;;;12.43;49.31;100118.81;4892686;28;98906;-63
2021/01/07 00:55:56;;;;;;;3.60;3.30;;;;;;;12.40;49.51;100113.97;4883396;28;97904;-61
2021/01/07 00:58:22;;;;;;;3.30;3.00;;;;;;;12.41;49.41;100113.66;4874443;28;127439;-62
2021/01/07 01:00:48;;;;;;;3.17;2.80;;;;;;;12.43;49.13;100122.31;4882860;28;119025;-62
2021/01/07 01:03:14;;;;;;;3.40;3.00;;;;;;;12.40;49.30;100122.88;4885758;28;127109;-62
2021/01/07 01:05:40;;;;;;;3.15;2.85;;;;;;;12.41;48.97;100129.88;4901780;28;127141;-62
2021/01/07 01:08:07;;;;;;;2.80;2.60;;;;;;;12.38;49.24;100135.88;4893219;28;128174;-62
2021/01/07 01:10:33;;;;;;;3.10;2.80;;;;;;;12.40;49.12;100135.59;4884111;28;112233;-61
2021/01/07 01:12:59;;;;;;;2.92;2.63;;;;;;;12.40;49.05;100138.28;4893839;28;98494;-61
2021/01/07 01:15:26;;;;;;;3.08;2.75;;;;;;;12.38;49.11;100146.69;4900466;28;116817;-61
2021/01/07 01:17:52;;;;;;;2.75;2.50;;;;;;;12.39;48.73;100148.31;4895330;28;121196;-62
2021/01/07 01:20:18;;;;;;;2.88;2.58;;;;;;;12.39;49.10;100142.09;4900282;28;106748;-62
2021/01/07 01:22:44;;;;;;;2.90;2.60;;;;;;;12.38;49.20;100141.28;4895876;28;106325;-62
2021/01/07 01:25:11;;;;;;;2.35;2.08;;;;;;;12.39;49.17;100145.59;4896952;28;127773;-61
2021/01/07 01:27:44;;;;;;;2.40;2.20;;;;;;;12.37;48.98;100145.06;4897662;28;97948;-61
2021/01/07 01:30:11;;;;;;;;;;;;;;;12.27;49.17;100146.00;4899459;28;117064;-61
2021/01/07 01:32:41;;;;;;;2.67;2.20;;;;;;;12.29;48.99;100151.91;4883641;28;98668;-62
2021/01/07 01:35:09;;;;;;;2.40;2.20;;;;;;;12.29;49.23;100146.50;4882169;28;115963;-62
2021/01/07 01:37:36;;;;;;;3.15;2.40;;;;;;;12.29;49.01;100151.91;4877113;28;97790;-62
2021/01/07 01:40:06;;;;;;;2.40;2.10;;;;;;;12.29;48.92;100145.69;4879895;28;97730;-62
2021/01/07 01:42:32;;;;;;;2.70;2.50;;;;;;;12.26;49.07;100144.38;4880810;28;99313;-62
2021/01/07 01:44:58;;;;;;;2.78;2.40;;;;;;;12.28;48.85;100144.91;4884740;28;126834;-61
2021/01/07 01:47:24;;;;;;;2.40;2.20;;;;;;;12.29;48.94;100149.19;4882139;28;127660;-62
2021/01/07 01:49:51;;;;;;;2.42;2.13;;;;;;;12.29;48.83;100151.09;4881041;28;118480;-62
2021/01/07 01:52:18;;;;;;;2.78;2.15;;;;;;;12.27;48.94;100147.91;4882442;28;98367;-62
2021/01/07 01:54:47;;;;;;;2.22;1.95;;;;;;;12.27;49.04;100148.69;4873557;28;98233;-62
2021/01/07 01:57:14;;;;;;;2.15;1.95;;;;;;;12.27;48.98;100146.00;4904215;28;123273;-62
2021/01/07 01:59:40;;;;;;;2.40;1.92;;;;;;;12.28;48.74;100141.38;4905145;28;97849;-61
2021/01/07 02:02:14;;;;;;;2.30;2.03;;;;;;;12.29;48.93;100148.41;4905247;28;99914;-62
2021/01/07 02:04:40;;;;;;;3.30;2.25;;;;;;;12.26;49.15;100141.69;4904919;28;110997;-62
2021/01/07 02:07:18;;;;;;;2.40;1.90;;;;;;;12.26;49.21;100143.56;4885697;28;126744;-61
2021/01/07 02:09:44;;;;;;;2.90;2.20;;;;;;;12.28;49.19;100142.19;4887666;28;107789;-61
2021/01/07 02:12:11;;;;;;;2.42;2.10;;;;;;;12.28;49.03;100133.28;4902208;28;99115;-62
2021/01/07 02:14:41;;;;;;;2.67;2.47;;;;;;;12.24;48.94;100138.44;4905177;28;111578;-62
2021/01/07 02:17:08;;;;;;;2.50;2.28;;;;;;;12.26;49.12;100138.16;4904163;28;98130;-62
2021/01/07 02:19:35;;;;;;;2.55;1.90;;;;;;;12.26;48.84;100133.59;4905031;28;98107;-61
2021/01/07 02:22:01;;;;;;;2.10;1.80;;;;;;;12.27;49.34;100135.19;4905230;28;98982;-62
2021/01/07 02:24:28;;;;;;;2.08;1.88;;;;;;;12.27;48.92;100128.97;4904265;28;105731;-62
2021/01/07 02:26:58;;;;;;;2.33;2.10;;;;;;;12.28;48.83;100133.28;4885757;28;127355;-61
2021/01/07 02:29:24;;;;;;;2.20;1.83;;;;;;;12.27;49.07;100127.06;4887446;28;109002;-61
2021/01/07 02:31:50;;;;;;;2.33;2.13;;;;;;;12.27;48.99;100124.38;4904470;28;128504;-62
2021/01/07 02:34:16;;;;;;;2.10;1.83;;;;;;;12.27;49.02;100128.97;4903668;28;121381;-61
2021/01/07 02:36:42;;;;;;;1.95;1.77;;;;;;;12.28;48.92;100125.19;4903140;28;127541;-62
2021/01/07 02:39:08;;;;;;;2.25;2.00;;;;;;;12.28;48.74;100117.88;4903998;28;117814;-62
2021/01/07 02:41:34;;;;;;;2.10;1.90;;;;;;;12.29;48.90;100124.06;4904883;28;127260;-61
2021/01/07 02:44:00;;;;;;;2.00;1.77;;;;;;;12.30;49.05;100120.31;4904472;28;116131;-61
2021/01/07 02:46:26;;;;;;;2.75;2.00;;;;;;;12.31;48.86;100121.91;4903806;28;124188;-62
2021/01/07 02:48:53;;;;;;;2.42;2.10;;;;;;;12.29;48.70;100121.38;4903121;28;118983;-61
2021/01/07 02:51:19;;;;;;;2.22;1.80;;;;;;;12.28;48.72;100117.88;4903938;28;127933;-62
2021/01/07 02:53:45;;;;;;;2.22;1.80;;;;;;;12.28;48.58;100120.56;4901431;28;128113;-61
2021/01/07 02:56:11;;;;;;;1.70;1.52;;;;;;;12.28;48.88;100117.06;4902410;28;100712;-62
2021/01/07 02:58:37;;;;;;;1.88;1.63;;;;;;;12.29;48.63;100122.19;4902344;28;116873;-62
2021/01/07 03:01:03;;;;;;;2.15;1.95;;;;;;;12.28;48.85;100115.16;4903359;28;125971;-62
2021/01/07 03:03:29;;;;;;;2.25;2.05;;;;;;;12.28;48.80;100112.47;4901390;28;127197;-61
2021/01/07 03:05:55;;;;;;;2.10;1.90;;;;;;;12.31;48.65;100110.28;4898692;28;126340;-61
2021/01/07 03:08:21;;;;;;;1.83;1.73;;;;;;;12.27;48.63;100108.16;4899039;28;114382;-61
2021/01/07 03:10:47;;;;;;;1.95;1.75;;;;;;;12.31;48.88;100111.09;4884363;28;98632;-61
2021/01/07 03:13:13;;;;;;;2.05;1.65;;;;;;;12.27;48.59;100108.16;4900916;28;127866;-61
2021/01/07 03:15:39;;;;;;;2.00;1.80;;;;;;;12.26;48.85;100113.84;4903199;28;97924;-61
2021/01/07 03:18:05;;;;;;;2.30;1.90;;;;;;;12.24;48.96;100106.03;4902159;28;116458;-62
2021/01/07 03:20:31;;;;;;;2.00;1.63;;;;;;;12.26;48.57;100111.97;4901355;28;127727;-62
2021/01/07 03:22:57;;;;;;;2.00;1.75;;;;;;;12.25;48.69;100107.63;4902856;28;127990;-61
2021/01/07 03:25:23;;;;;;;2.38;2.10;;;;;;;12.26;49.08;100108.44;4886176;28;101130;-61
2021/01/07 03:27:49;;;;;;;2.20;2.00;;;;;;;12.26;48.48;100109.25;4903675;28;117866;-62
2021/01/07 03:30:16;;;;;;;2.40;1.95;;;;;;;12.27;48.65;100107.34;4903053;28;128171;-61
2021/01/07 03:32:42;;;;;;;2.28;2.08;;;;;;;12.25;48.68;100102.22;4901726;28;117192;-61
2021/01/07 03:35:10;;;;;;;2.72;2.20;;;;;;;12.25;48.84;100114.94;4885650;28;97941;-62
2021/01/07 03:37:36;;;;;;;2.35;2.10;;;;;;;12.27;48.51;100105.47;4903584;28;97886;-61
2021/01/07 03:40:02;;;;;;;2.13;1.83;;;;;;;12.26;48.75;100106.56;4885447;28;119852;-62
2021/01/07 03:42:28;;;;;;;2.50;2.10;;;;;;;12.22;48.84;100100.13;4901110;28;98568;-62
2021/01/07 03:44:54;;;;;;;2.50;2.00;;;;;;;12.25;48.77;100102.22;4900824;28;126912;-62
2021/01/07 03:47:20;;;;;;;2.63;2.40;;;;;;;12.23;48.90;100101.72;4902772;28;117062;-61
2021/01/07 03:49:46;;;;;;;2.47;2.25;;;;;;;12.25;48.90;100098.72;4903659;28;127919;-62
2021/01/07 03:52:12;;;;;;;3.03;2.67;;;;;;;12.23;48.92;100104.41;4902650;28;127245;-62
2021/01/07 03:54:38;;;;;;;2.95;2.53;;;;;;;12.23;49.04;100104.41;4902413;28;127541;-63
2021/01/07 03:57:06;;;;;;;2.83;2.53;;;;;;;12.25;48.90;100106.81;4903139;28;100481;-62
2021/01/07 03:59:33;;;;;;;3.17;2.92;;;;;;;12.25;48.83;100107.63;4903561;28;98240;-61
2021/01/07 04:01:59;;;;;;;3.42;2.70;;;;;;;12.25;48.86;100109.53;4900605;28;99476;-61
2021/01/07 04:04:25;;;;;;;2.88;2.58;;;;;;;12.22;48.76;100108.22;4903024;28;112033;-61
2021/01/07 04:06:51;;;;;;;3.15;2.80;;;;;;;12.21;49.03;100111.19;4884947;28;97810;-61
2021/01/07 04:09:17;;;;;;;3.13;2.83;;;;;;;12.25;48.91;100109.53;4901558;28;126022;-62
2021/01/07 04:11:43;;;;;;;3.10;2.80;;;;;;;12.22;48.90;100105.53;4901753;28;126287;-61
2021/01/07 04:14:09;;;;;;;3.33;2.90;;;;;;;12.23;49.22;100114.44;4883956;28;128301;-61
2021/01/07 04:16:35;;;;;;;3.45;3.15;;;;;;;12.23;49.06;100104.41;4902741;28;118687;-61
2021/01/07 04:19:01;;;;;;;3.33;2.78;;;;;;;12.21;49.06;100114.69;4899968;28;128031;-62
2021/01/07 04:21:27;;;;;;;3.55;3.20;;;;;;;12.20;49.03;100104.19;4902054;28;115750;-61
2021/01/07 04:23:53;;;;;;;3.70;2.97;;;;;;;12.20;49.21;100110.38;4884943;28;100296;-61
2021/01/07 04:26:19;;;;;;;3.25;2.95;;;;;;;12.23;48.88;100106.31;4883998;28;117471;-61
2021/01/07 04:28:45;;;;;;;3.72;3.33;;;;;;;12.23;49.18;100109.81;4899062;28;127988;-62
2021/01/07 04:31:11;;;;;;;3.25;2.85;;;;;;;12.23;48.93;100103.63;4902138;28;125645;-62
2021/01/07 04:33:38;;;;;;;3.65;3.28;;;;;;;12.21;48.95;100112.00;4885555;28;111171;-62
2021/01/07 04:36:04;;;;;;;3.40;3.10;;;;;;;12.21;49.32;100111.19;4899826;28;118487;-62
2021/01/07 04:38:30;;;;;;;4.00;2.92;;;;;;;12.21;49.25;100109.28;4883587;28;99247;-61
2021/01/07 04:40:56;;;;;;;3.53;3.22;;;;;;;12.22;49.09;100104.69;4901301;28;127970;-61
2021/01/07 04:43:23;;;;;;;3.40;3.00;;;;;;;12.21;49.37;100106.59;4901869;28;127421;-62
2021/01/07 04:45:49;;;;;;;3.25;2.95;;;;;;;12.20;49.36;100105.00;4900973;28;105022;-62
2021/01/07 04:48:15;;;;;;;3.25;2.95;;;;;;;12.22;49.03;100108.22;4902043;28;117318;-63
2021/01/07 04:50:41;;;;;;;3.17;2.80;;;;;;;12.23;48.97;100104.41;4884189;28;128255;-62
2021/01/07 04:53:07;;;;;;;3.30;2.97;;;;;;;12.23;48.85;100106.31;4883839;28;126379;-61
2021/01/07 04:55:33;;;;;;;3.47;3.17;;;;;;;12.22;49.21;100105.53;4917404;28;118815;-62
2021/01/07 04:57:59;;;;;;;3.60;3.30;;;;;;;12.24;49.28;100105.22;4921087;28;109280;-62
2021/01/07 05:00:25;;;;;;;3.22;2.92;;;;;;;12.24;49.08;100102.53;4920831;28;128116;-61
2021/01/07 05:02:51;;;;;;;3.40;3.10;;;;;;;12.23;49.29;100099.03;4902206;28;128475;-62
2021/01/07 05:05:18;;;;;;;3.08;2.78;;;;;;;12.25;48.98;100106.81;4884205;28;117880;-62
2021/01/07 05:07:44;;;;;;;3.13;2.83;;;;;;;12.22;48.83;100102.81;4901557;28;108531;-62
2021/01/07 05:10:11;;;;;;;3.38;3.08;;;;;;;12.26;49.17;100108.44;4868535;28;98378;-61
2021/01/07 05:12:38;;;;;;;3.30;2.95;;;;;;;12.25;49.15;100102.22;4901105;28;98052;-61
2021/01/07 05:15:06;;;;;;;3.08;2.78;;;;;;;12.26;49.01;100103.03;4902647;28;97801;-61
2021/01/07 05:17:32;;;;;;;3.58;2.92;;;;;;;12.27;48.71;100100.06;4901503;28;98120;-61
2021/01/07 05:19:58;;;;;;;3.20;2.88;;;;;;;12.31;48.85;100107.59;4901313;28;128335;-61
2021/01/07 05:22:41;;;;;;;3.03;2.72;;;;;;;12.32;48.98;100106.50;4901848;28;97949;-61
2021/01/07 05:25:13;;;;;;;3.47;2.80;;;;;;;12.38;48.67;100103.44;4901721;28;97753;-61
2021/01/07 05:27:40;;;;;;;3.70;3.00;;;;;;;12.40;48.59;100103.97;4901811;28;99273;-61
2021/01/07 05:30:09;;;;;;;3.15;2.85;;;;;;;12.41;48.47;100110.97;4899964;28;98632;-61
2021/01/07 05:32:37;;;;;;;3.13;2.80;;;;;;;12.47;48.33;100114.44;4898900;28;98600;-62
2021/01/07 05:35:08;;;;;;;2.92;2.70;;;;;;;12.46;48.49;100116.34;4921692;28;97793;-62
2021/01/07 05:37:38;;;;;;;3.03;2.70;;;;;;;12.48;48.02;100110.63;4919910;28;113484;-61
2021/01/07 05:40:06;;;;;;;2.83;2.50;;;;;;;12.49;48.01;100117.63;4920086;28;98195;-62
2021/01/07 05:42:43;;;;;;;3.72;2.95;;;;;;;12.48;48.10;100121.44;4920815;28;98141;-63
2021/01/07 05:45:11;;;;;;;3.30;3.00;;;;;;;12.48;48.16;100111.44;4922175;28;97966;-61
2021/01/07 05:47:40;;;;;;;2.92;2.60;;;;;;;12.49;48.04;100115.72;4919264;28;98338;-61
2021/01/07 05:50:07;;;;;;;3.47;2.65;;;;;;;12.49;47.93;100121.13;4921456;28;98699;-61
2021/01/07 05:52:33;;;;;;;2.95;2.65;;;;;;;12.50;48.31;100119.28;4919807;28;97928;-61
2021/01/07 05:55:00;;;;;;;3.17;2.58;;;;;;;12.49;48.18;100115.72;4903707;28;98456;-61
2021/01/07 05:57:26;;;;;;;4.25;3.20;;;;;;;12.48;48.05;100118.75;4920842;28;98247;-61
2021/01/07 05:59:53;;;;;;;3.90;2.90;;;;;;;12.48;48.09;100116.03;4917947;28;128522;-61
2021/01/07 06:02:19;;;;;;;3.30;3.00;;;;;;;12.49;48.01;100112.22;4902785;28;98371;-62
2021/01/07 06:04:48;;;;;;;3.15;2.83;;;;;;;12.46;48.00;100119.03;4902392;28;117927;-61
2021/01/07 06:07:19;;;;;;;3.45;2.95;;;;;;;12.47;47.97;100115.22;4919242;28;98483;-61
2021/01/07 06:09:47;;;;;;;3.72;3.33;;;;;;;12.44;47.99;100115.81;4920654;28;98485;-61
2021/01/07 06:12:14;;;;;;;3.33;3.03;;;;;;;12.44;48.14;100115.00;4920007;28;98706;-62
2021/01/07 06:14:44;;;;;;;3.30;3.00;;;;;;;12.42;48.22;100109.91;4921049;28;98191;-61
2021/01/07 06:17:10;;;;;;;3.72;3.25;;;;;;;12.42;48.03;100114.50;4902963;28;98779;-62
2021/01/07 06:19:44;;;;;;;3.75;3.35;;;;;;;12.43;48.39;100116.91;4919216;28;98387;-62
2021/01/07 06:22:15;;;;;;;3.45;3.15;;;;;;;12.42;48.10;100111.78;4920496;28;98197;-62
2021/01/07 06:24:43;;;;;;;3.45;3.05;;;;;;;12.41;48.07;100113.66;4914141;28;99098;-62
2021/01/07 06:27:23;;;;;;;3.40;3.10;;;;;;;12.39;48.06;100115.88;4900518;28;113361;-61
2021/01/07 06:29:53;;;;;;;3.90;3.47;;;;;;;12.39;48.19;100113.16;4902250;28;97797;-61
2021/01/07 06:32:19;;;;;;;3.63;3.22;;;;;;;12.37;48.12;100114.53;4903423;28;98179;-61
2021/01/07 06:34:46;;;;;;;3.53;2.90;;;;;;;12.39;48.13;100118.56;4902861;28;98127;-61
2021/01/07 06:37:12;;;;;;;3.78;3.38;;;;;;;12.37;47.88;100107.22;4902747;28;99021;-61
2021/01/07 06:39:44;;;;;;;3.90;3.47;;;;;;;12.36;48.39;100119.13;4905046;28;98520;-62
2021/01/07 06:42:20;;;;;;;3.83;3.35;;;;;;;12.36;48.19;100121.03;4886741;28;128001;-62
2021/01/07 06:44:46;;;;;;;3.40;3.10;;;;;;;12.37;48.18;100122.66;4885842;28;111879;-61
2021/01/07 06:47:19;;;;;;;3.90;3.50;;;;;;;12.32;48.44;100118.09;4921069;28;105569;-61
2021/01/07 06:49:46;;;;;;;4.70;3.50;;;;;;;12.34;48.39;100126.75;4921029;28;98123;-61
2021/01/07 06:52:12;;;;;;;3.92;3.53;;;;;;;12.35;48.19;100131.06;4920221;28;98073;-61
2021/01/07 06:54:42;;;;;;;3.60;3.03;;;;;;;12.33;48.20;100132.41;4918059;28;117494;-61
2021/01/07 06:57:11;;;;;;;3.47;3.10;;;;;;;12.34;48.33;100140.25;4920857;28;98463;-61
2021/01/07 06:59:37;;;;;;;3.67;3.22;;;;;;;12.35;47.69;100139.16;4905940;28;98197;-61
2021/01/07 07:02:05;;;;;;;3.88;3.25;;;;;;;12.33;47.92;100141.31;4902384;28;97724;-62
2021/01/07 07:04:32;;;;;;;3.90;3.10;;;;;;;12.33;48.18;100135.91;4888595;28;97856;-61
2021/01/07 07:07:50;;;;;;;3.70;3.10;;;;;;;12.29;48.00;100146.50;4889804;28;98522;-62
2021/01/07 07:10:22;;;;;;;3.47;3.00;;;;;;;12.29;48.24;100153.81;4878748;28;102738;-61
2021/01/07 07:12:50;;;;;;;4.00;2.97;;;;;;;12.33;48.21;100151.34;4894912;28;98010;-62
2021/01/07 07:15:24;;;;;;;3.83;3.40;;;;;;;12.33;48.07;100154.03;4882125;28;98096;-62
2021/01/07 07:17:53;;;;;;;3.90;3.15;;;;;;;12.31;48.33;100151.63;4913008;28;99263;-62
2021/01/07 07:20:24;;;;;;;3.45;3.03;;;;;;;12.34;48.19;100155.63;4884477;28;102678;-61
2021/01/07 07:22:50;;;;;;;3.75;3.00;;;;;;;12.34;48.01;100161.03;4914460;28;97916;-62
2021/01/07 07:25:26;;;;;;;5.03;3.15;;;;;;;12.33;48.41;100165.66;4919551;28;100522;-62
2021/01/07 07:28:00;;;;;;;4.32;3.30;;;;;;;12.37;47.98;100160.47;4918774;28;98639;-62
2021/01/07 07:30:28;;;;;;;3.45;3.15;;;;;;;12.38;48.14;100162.91;4920586;28;98439;-62
2021/01/07 07:32:55;;;;;;;3.53;3.00;;;;;;;12.36;48.42;100162.38;4913159;28;98234;-61
2021/01/07 07:35:26;;;;;;;3.60;2.97;;;;;;;12.37;48.14;100161.28;4919325;28;102305;-61
2021/01/07 07:37:52;;;;;;;4.18;2.92;;;;;;;12.37;48.29;100158.59;4914214;28;99369;-61
2021/01/07 07:40:39;;;;;;;3.30;3.00;;;;;;;12.36;48.64;100165.09;4918930;28;111545;-62
2021/01/07 07:43:07;;;;;;;3.17;2.88;;;;;;;12.38;48.41;100157.50;4918525;28;98223;-61
2021/01/07 07:45:35;;;;;;;3.55;3.22;;;;;;;12.39;48.56;100164.53;4902333;28;107439;-62
2021/01/07 07:48:01;;;;;;;3.78;3.10;;;;;;;12.38;48.62;100165.63;4920367;28;98689;-61
2021/01/07 07:50:29;;;;;;;3.65;3.17;;;;;;;12.42;48.75;100165.84;4920189;28;113180;-61
2021/01/07 07:53:05;;;;;;;3.80;3.40;;;;;;;12.37;48.81;100163.19;4907123;28;98065;-62
2021/01/07 07:55:38;;;;;;;4.07;3.67;;;;;;;12.39;48.93;100166.41;4882307;28;98262;-62
2021/01/07 07:58:17;;;;;;;4.15;3.55;;;;;;;12.37;49.10;100172.09;4892341;28;113067;-62
2021/01/07 08:01:10;;;;;;;3.35;2.90;;;;;;;12.36;49.78;100173.19;4883069;28;98599;-62
2021/01/07 08:03:36;;;;;;;3.77;3.30;;;;;;;12.39;49.76;100175.34;4888432;28;127794;-62
2021/01/07 08:06:02;;;;;;;3.63;3.22;;;;;;;12.38;49.68;100184.53;4882586;28;117159;-61
2021/01/07 08:08:33;;;;;;;3.58;3.13;;;;;;;12.37;50.38;100187.50;4866748;28;98350;-61
2021/01/07 08:11:00;;;;;;;3.42;2.95;;;;;;;12.40;50.34;100192.34;4898114;28;98608;-62
2021/01/07 08:13:28;;;;;;;3.45;3.10;;;;;;;12.37;50.66;100188.31;4892446;28;98005;-61
2021/01/07 08:15:56;;;;;;;3.13;2.75;;;;;;;12.39;50.90;100193.44;4882268;28;99796;-63
2021/01/07 08:18:26;;;;;;;3.33;3.03;;;;;;;12.36;50.93;100197.53;4898117;28;106035;-61
2021/01/07 08:20:54;;;;;;;3.60;3.20;;;;;;;12.36;51.20;100197.53;4899870;28;98655;-61
2021/01/07 08:23:21;;;;;;;4.32;3.75;;;;;;;12.41;51.22;100193.97;4917471;28;113026;-61
2021/01/07 08:25:52;;;;;;;3.50;3.20;;;;;;;12.39;51.21;100188.84;4920589;28;97791;-61
2021/01/07 08:28:30;;;;;;;3.85;3.15;;;;;;;12.40;51.48;100205.88;4901051;28;127120;-61
2021/01/07 08:31:06;;;;;;;3.67;2.83;;;;;;;12.39;51.58;100193.44;4920005;28;98687;-61
2021/01/07 08:33:33;;;;;;;4.03;3.22;;;;;;;12.38;52.10;100200.75;4901177;28;117639;-61
2021/01/07 08:36:09;;;;;;;3.05;2.75;;;;;;;12.38;51.81;100199.94;4902055;28;98074;-61
2021/01/07 08:38:36;;;;;;;4.13;3.22;;;;;;;12.38;52.17;100205.34;4900787;28;99965;-62
2021/01/07 08:41:33;;;;;;;3.53;2.85;;;;;;;12.37;52.19;100198.31;4901469;28;98844;-62
2021/01/07 08:44:03;;;;;;;3.95;3.17;;;;;;;12.40;52.13;100200.47;4916602;28;127290;-62
2021/01/07 08:46:43;;;;;;;3.80;3.40;;;;;;;12.39;52.12;100199.66;4901385;28;98098;-61
2021/01/07 08:49:18;;;;;;;4.18;3.28;;;;;;;12.37;52.16;100204.53;4894773;28;98304;-61
2021/01/07 08:51:45;;;;;;;3.47;3.17;;;;;;;12.42;52.43;100206.41;4900414;28;98640;-61
2021/01/07 08:54:14;;;;;;;3.53;3.10;;;;;;;12.41;52.23;100202.06;4883615;28;118835;-61
2021/01/07 08:56:51;;;;;;;4.10;3.38;;;;;;;12.39;52.52;100209.66;4880934;28;97763;-61
2021/01/07 08:59:18;;;;;;;3.53;3.20;;;;;;;12.40;52.26;100201.25;4863079;28;98364;-62
2021/01/07 09:01:54;;;;;;;3.63;3.20;;;;;;;12.43;52.29;100205.31;4880343;28;98362;-62
2021/01/07 09:04:34;;;;;;;3.28;2.97;;;;;;;12.43;52.28;100202.59;4880541;28;97986;-61
2021/01/07 09:07:08;;;;;;;3.30;2.90;;;;;;;12.42;52.09;100206.41;4864108;28;97975;-61
2021/01/07 09:09:41;;;;;;;3.58;3.05;;;;;;;12.43;52.16;100206.09;4880775;28;114327;-61
2021/01/07 09:12:18;;;;;;;3.65;3.10;;;;;;;12.49;52.13;100213.06;4879756;28;98850;-62
2021/01/07 09:14:47;;;;;;;3.78;3.38;;;;;;;12.48;52.06;100211.44;4880200;28;98526;-61
2021/01/07 09:17:14;;;;;;;3.90;3.50;;;;;;;12.55;51.89;100210.31;4879916;28;97971;-61
2021/01/07 09:19:40;;;;;;;3.70;3.25;;;;;;;12.55;51.94;100210.31;4898285;28;99929;-61
2021/01/07 09:22:06;;;;;;;3.60;3.03;;;;;;;12.58;51.90;100209.75;4866075;28;98507;-61
2021/01/07 09:24:35;;;;;;;4.22;3.50;;;;;;;12.58;51.81;100209.75;4872136;28;111739;-61
2021/01/07 09:27:11;;;;;;;3.80;3.03;;;;;;;12.58;52.09;100207.06;4879716;28;97903;-62
2021/01/07 09:29:37;;;;;;;3.92;3.47;;;;;;;12.60;51.82;100211.06;4889031;28;98276;-61
2021/01/07 09:32:05;;;;;;;4.20;3.35;;;;;;;12.63;51.78;100207.78;4894947;28;98514;-61
2021/01/07 09:34:32;;;;;;;3.70;3.05;;;;;;;12.67;51.78;100208.03;4873142;28;97779;-62
2021/01/07 09:37:24;;;;;;;4.03;3.25;;;;;;;12.61;51.90;100203.75;4880073;28;97882;-62
2021/01/07 09:39:52;;;;;;;3.65;3.25;;;;;;;12.63;52.00;100201.59;4875890;28;128581;-61
2021/01/07 09:42:19;;;;;;;4.32;3.50;;;;;;;12.64;52.08;100197.78;4879565;28;98862;-61
2021/01/07 09:44:45;;;;;;;4.20;3.38;;;;;;;12.66;51.99;100201.00;4880356;28;98139;-62
2021/01/07 09:47:11;;;;;;;4.22;3.13;;;;;;;12.68;51.77;100204.22;4897935;28;116986;-63
2021/01/07 09:49:38;;;;;;;4.07;3.10;;;;;;;12.73;51.93;100201.44;4874771;28;98533;-61
2021/01/07 09:52:04;;;;;;;3.45;2.97;;;;;;;12.72;51.79;100197.94;4898246;28;98536;-62
2021/01/07 09:54:31;;;;;;;3.92;3.13;;;;;;;12.75;51.92;100199.28;4908840;28;123061;-62
2021/01/07 09:56:58;;;;;;;3.75;3.00;;;;;;;12.76;52.02;100200.88;4918652;28;97887;-61
2021/01/07 09:59:25;;;;;;;3.60;3.00;;;;;;;12.82;52.04;100197.03;4918416;28;98386;-61
2021/01/07 10:02:08;;;;;;;4.75;3.08;;;;;;;12.82;51.84;100197.03;4915117;28;98384;-61
2021/01/07 10:04:34;;;;;;;3.10;2.75;;;;;;;12.85;51.95;100201.03;4902827;28;97958;-62
2021/01/07 10:07:01;;;;;;;3.50;2.90;;;;;;;12.86;51.96;100200.78;4922739;28;97883;-62
2021/01/07 10:09:27;;;;;;;3.30;2.97;;;;;;;12.87;52.19;100194.25;4908881;28;99000;-62
2021/01/07 10:11:55;;;;;;;3.60;2.65;;;;;;;12.90;52.20;100192.88;4902051;28;102913;-62
2021/01/07 10:14:21;;;;;;;3.05;2.65;;;;;;;12.93;52.15;100195.81;4882235;28;98138;-61
2021/01/07 10:16:51;;;;;;;2.53;2.33;;;;;;;12.95;52.17;100190.13;4882897;28;97844;-61
2021/01/07 10:19:19;;;;;;;3.22;2.60;;;;;;;12.98;52.15;100184.13;4882117;28;117873;-61
2021/01/07 10:22:01;;;;;;;2.50;2.30;;;;;;;13.02;52.43;100185.97;4881277;28;120779;-62
2021/01/07 10:24:28;;;;;;;3.65;2.67;;;;;;;13.07;52.55;100179.69;4882454;28;98137;-61
2021/01/07 10:27:03;;;;;;;2.75;2.42;;;;;;;13.07;52.54;100189.69;4881757;28;98044;-62
2021/01/07 10:29:32;;;;;;;3.75;3.00;;;;;;;13.07;52.67;100182.38;4883073;28;98490;-61
2021/01/07 10:32:06;;;;;;;2.97;2.50;;;;;;;13.07;52.68;100176.97;4881843;28;119125;-61
2021/01/07 10:34:40;;;;;;;3.53;2.75;;;;;;;13.12;52.68;100174.19;4883077;28;98515;-61
2021/01/07 10:37:07;;;;;;;3.38;2.83;;;;;;;13.17;52.62;100174.13;4882238;28;105346;-62
2021/01/07 10:39:35;;;;;;;2.83;2.42;;;;;;;13.16;52.88;100175.22;4907418;28;98975;-61
2021/01/07 10:42:03;;;;;;;3.38;2.65;;;;;;;13.19;52.73;100177.34;4920144;28;112493;-61
2021/01/07 10:44:29;;;;;;;3.25;2.88;;;;;;;13.20;52.67;100184.38;4920906;28;98609;-62
2021/01/07 10:46:59;;;;;;;3.33;2.65;;;;;;;13.20;52.86;100175.44;4921953;28;98063;-61
2021/01/07 10:49:29;;;;;;;3.47;3.05;;;;;;;13.16;53.05;100177.13;4902401;28;98577;-62
2021/01/07 10:52:07;;;;;;;2.85;2.58;;;;;;;13.15;53.40;100176.31;4921796;28;98730;-61
2021/01/07 10:55:04;;;;;;;2.90;2.60;;;;;;;13.17;53.31;100173.34;4920929;28;97941;-61
2021/01/07 10:57:42;;;;;;;3.50;2.83;;;;;;;13.18;53.25;100174.94;4919452;28;97962;-61
2021/01/07 11:00:29;;;;;;;3.10;2.75;;;;;;;13.19;53.48;100177.34;4920269;28;98405;-61
2021/01/07 11:03:17;;;;;;;3.28;2.67;;;;;;;13.17;53.51;100179.56;4897734;28;117662;-62
2021/01/07 11:05:48;;;;;;;4.00;2.83;;;;;;;13.16;53.66;100177.91;4902058;28;97833;-61
2021/01/07 11:08:30;;;;;;;3.53;2.80;;;;;;;13.17;53.43;100176.03;4892629;28;97879;-62
2021/01/07 11:10:59;;;;;;;3.25;2.67;;;;;;;13.17;53.37;100173.34;4905576;28;98206;-62
2021/01/07 11:13:38;;;;;;;3.80;2.95;;;;;;;13.17;53.58;100174.13;4900958;28;99067;-61
2021/01/07 11:16:04;;;;;;;3.28;2.97;;;;;;;13.18;53.37;100180.34;4899796;28;113387;-61
2021/01/07 11:18:33;;;;;;;3.75;3.35;;;;;;;13.18;53.38;100170.31;4916475;28;116060;-61
2021/01/07 11:21:05;;;;;;;3.60;2.92;;;;;;;13.16;53.27;100177.91;4915688;28;111856;-61
2021/01/07 11:23:31;;;;;;;3.97;3.40;;;;;;;13.16;53.22;100177.91;4915794;28;125547;-62
2021/01/07 11:25:58;;;;;;;3.65;3.00;;;;;;;13.17;53.42;100174.13;4899941;28;98135;-61
2021/01/07 11:28:24;;;;;;;3.00;2.67;;;;;;;13.19;53.49;100173.84;4915251;28;99070;-61
2021/01/07 11:30:50;;;;;;;3.13;2.83;;;;;;;13.18;53.19;100169.53;4885250;28;128024;-63